首页
METAR-TAF:

METAR-TAF

机场 :

道森克里克, 不列颠哥伦比亚, 加拿大

纬度: 55-45N, 经度: 120-11W, 海拔: 655米

当前天气观测

该预报发布于51分钟前的00:00 UTC
风速16节,风向西
温度 13°C
湿度 41%
气压 1011 hPa
能見度: 14.5公里
多云层高于6600英尺
阴天层高于25000英尺

METAR: CYDQ 080000Z AUTO 27016KT 9SM BKN066 OVC250 13/M00 A2984 RMK SLP121 DENSITY ALT 2600FT

时间: 17:51 (00:51 UTC)

预报

该预报发布于13分钟前的00:38 UTC
预报有效从08日的 01点(UTC)到 08日的 05点(UTC)
风速15节,风向西
能見度: 10公里
散云层高于6000英尺
多云层高于20000英尺
短暂存在
从 08日的 01点(UTC)到 08日的 03点(UTC)
多云层高于6000英尺
从 08日的 0300点(UTC)
风速10节,风向西
能見度: 10公里
少量云层高于6000英尺
多云层高于15000英尺

TAF: CYDQ 080038Z 0801/0805 26015KT P6SM SCT060 BKN200 TEMPO 0801/0803 BKN060 FM080300 26010KT P6SM FEW060 BKN150 RMK FCST BASED ON AUTO OBS. NXT FCST WILL BE ISSUED AT 081245Z

超过4000个机场的气象观测和天气预报(METAR&TAF报告)。

可查询的气象台以黄色和红色小点在地图上表示。

将鼠标移到小点上方,可查看气象台名称。

然后点击查看天气观测和预报。

如需切换地图:点击带黑十字的绿色按钮放大地图;点击带横线的绿色按钮缩小地图;或者点击绿色箭头查看邻近地区的地图。


METAR-TAF: